Tiempo atmosférico en la estación meteorológica de Gijón, Campus, Asturias (26 m.)



Fecha
DESCASC
Temp. máxima en grados centígrados (hora)
DESCASC
Temp. mínima en grados centígrados (hora)
DESCASC
Temp. media en grados centígrados
DESCASC
Racha de viento máxima en m/sg (hora)
DESCASC
Velocidad máxima media en intervalos de 10 minutos(hora)
DESCASC
Precipitaciones diarias en mm
DESCASC
Precipitaciones de 00:00 a 06:00 en mm
DESCASC
Precipitaciones de 06:00 a 12:00 en mm
DESCASC
Precipitaciones de 12:00 a 18:00 en mm
DESCASC
Precipitaciones de 18:00 a 24:00 en mm
DESCASC
20-09-2020 22.2 (13:50) 13.2 (06:20) 17.7 5.83 (15:30) 3.89 (15:00) 0 0 0 0 0
19-09-2020 21.5 (18:20) 16.4 (00:50) 18.9 6.94 (15:00) 3.33 (16:20) 7 0 0.6 6.4 0
18-09-2020 23.6 (15:00) 16.7 (23:50) 20.2 6.94 (00:10) 3.61 (15:10) 18.6 13.6 5 0 0
17-09-2020 25.4 (18:00) 19 (00:00) 22.2 5 (06:40) 3.06 (14:20) 0.2 0 0.2 0 0
16-09-2020 -- (--) -- (--) -- -- (--) -- (--) -- 0 -- -- 0
15-09-2020 24.8 (15:10) 14.7 (00:00) 19.7 -- (--) -- (--) -- 0 0 -- --
14-09-2020 -- (--) -- (--) -- -- (--) -- (--) -- 0 0 -- --
13-09-2020 29.6 (17:20) 14.4 (00:00) 22 5.83 (01:10) 2.78 (00:50) 0 0 0 0 0
12-09-2020 24.9 (15:00) 18.6 (00:00) 21.8 8.33 (16:40) 4.44 (16:40) -- 0 0 0 --
11-09-2020 25.5 (15:50) 14.8 (00:00) 20.2 8.61 (16:00) 4.17 (16:00) 0 0 0 0 0
10-09-2020 24.2 (14:00) 11.6 (00:00) 17.9 7.22 (14:30) 5 (14:40) 0 0 0 0 0
09-09-2020 24.2 (15:40) 12 (00:00) 18.1 9.44 (15:50) 5.56 (15:50) 0 0 0 0 0
08-09-2020 23.7 (14:20) 11.8 (00:00) 17.8 11.67 (19:20) 6.39 (15:30) 0 0 0 0 0
07-09-2020 22.6 (14:00) 11.3 (08:30) 17 8.89 (18:10) 4.72 (19:40) 0 0 0 0 0
06-09-2020 21 (17:10) 15.8 (00:00) 18.4 7.22 (14:30) 3.61 (16:50) 1.2 1.2 0 0 0
05-09-2020 21.1 (00:30) 17.1 (00:00) 19.1 7.5 (19:50) 3.61 (17:30) 3 0 0 1.8 1.2
04-09-2020 26.5 (16:20) 13.8 (00:00) 20.2 6.39 (16:40) 4.44 (16:40) 0 0 0 0 0
03-09-2020 26.2 (17:50) 12 (00:00) 19.1 6.94 (15:40) 3.61 (13:50) 0 0 0 0 0
02-09-2020 23.5 (15:10) 12 (00:00) 17.8 8.89 (14:30) 5 (14:30) 0 0 0 0 0
01-09-2020 23 (15:40) 12.5 (00:00) 17.8 7.5 (15:30) 4.17 (15:30) 0 0 0 0 0
31-08-2020 23.6 (15:30) 8 (00:00) 15.8 7.5 (14:30) 3.61 (14:00) 0.2 0 0.2 0 0
30-08-2020 19.7 (19:10) 11.5 (00:00) 15.6 4.72 (20:00) 2.78 (17:20) 22.6 10.6 2.6 9.4 0
29-08-2020 19.2 (14:40) 13.6 (00:00) 16.4 13.89 (10:30) 7.22 (15:50) 24.6 4 16 1.2 3.4
28-08-2020 22.4 (16:40) 14.8 (00:00) 18.6 13.06 (17:50) 6.39 (17:50) 4.4 3 0 0 1.4
27-08-2020 26.4 (15:50) 18.4 (00:00) 22.4 7.5 (17:00) 4.44 (12:50) 0.2 0 0 0 0.2
26-08-2020 26.9 (18:30) 20.6 (00:00) 23.8 8.06 (15:50) 3.89 (13:50) 0.2 0.2 0 0 0
25-08-2020 27.3 (16:00) 14.9 (00:00) 21.1 8.89 (17:50) 5.28 (17:50) 0 0 0 0 0
24-08-2020 25.7 (17:20) 17.2 (00:00) 21.5 8.61 (18:20) 3.89 (13:50) 0 0 0 0 0

Gráficas

Temp. máximas Temp. mínimas Temp. medias Precipitaciones Rachas de viento máximas Velocidades máximas media en intervalos de 10 minutos

Datos horarios

Fecha y hora oficial Temperatura (ºC) Velocidad del viento (km/h) Dirección del viento Racha (km/h) Dirección de racha Precipitación (mm) Presión (hPa) Tendencia (hPa) Humedad (%)
2020-09-22 23:00:00 15.4 3 Sudeste 6 Sudeste 0 1009.3 -0.1 95
2020-09-22 22:00:00 16.8 3 Este 6 Este 0 1009.5 0 92
2020-09-22 21:00:00 18.5 3 Este 10 Este 0 1009.5 -- 85
2020-09-22 20:00:00 19.6 6 Este 15 Este 0 1009.4 -- 80
2020-09-22 19:00:00 19.9 4 Nordeste 12 Norte 0 1009.5 -- 77
2020-09-22 18:00:00 19.6 8 Norte 13 Nordeste 0 1009.9 -- 79
2020-09-22 17:00:00 20.5 9 Norte 17 Nordeste 0 1010.4 -- 73
2020-09-22 16:00:00 21.6 10 Norte 17 Norte 0 1010.9 -- 66
2020-09-22 15:00:00 21.4 12 Norte 19 Norte 0 1011.4 -- 70
2020-09-22 14:00:00 20.8 13 Norte 19 Norte 0 1011.9 -- 77
2020-09-22 13:00:00 20.6 11 Noroeste 17 Noroeste 0 1012.3 -- 78
2020-09-22 12:00:00 19.6 5 Oeste 10 Noroeste 0 1012.6 -- 81
2020-09-22 11:00:00 18.2 5 Sudoeste 9 Sudoeste 0 1012.8 -- 86
2020-09-22 10:00:00 15.9 3 Norte 5 Sudeste 0 1012.9 -- 100
2020-09-22 09:00:00 14.6 3 Sudeste 5 Este 0 1013 -- 100
2020-09-22 08:00:00 14.1 4 Sudeste 5 Sudeste 0 1012.6 -- 100
2020-09-22 07:00:00 14.2 0 Calma 4 Oeste 0 1012.6 -- 99
2020-09-22 06:00:00 14.6 0 Calma 5 Este 0 1012.6 -- 99
2020-09-22 05:00:00 15.1 4 Sudeste 8 Sudeste 0 1013.1 -- 99
2020-09-22 04:00:00 15.9 5 Sudeste 9 Sudeste 0 1013.8 -- 98
2020-09-22 03:00:00 16.5 0 Calma 6 Norte 0 1014 -- 98
2020-09-22 02:00:00 16.5 2 Sudeste 5 Este 0 1014.3 -- 98
2020-09-22 01:00:00 16.8 3 Este 5 Sudeste 0 1014.7 -- 98
2020-09-22 00:00:00 17 4 Sudeste 6 Sudeste 0 1015.4 -- 98
2020-09-21 23:00:00 17.2 3 Sudeste 5 Sudeste 0 1015.4 -- 97
2020-09-21 22:00:00 17.7 2 Sudeste 4 Sudeste 0 1015.3 -- 95
2020-09-21 21:00:00 18.1 3 Sudeste 5 Este 0 1015.2 -- 93
2020-09-21 20:00:00 19 2 Noroeste 6 Norte 0 1015.2 -- 87
2020-09-21 19:00:00 20 3 Nordeste 10 Norte 0 1015.1 -- 82
2020-09-21 18:00:00 20.1 4 Norte 10 Norte 0 1015.1 -- 80
2020-09-21 17:00:00 20.1 3 Norte 9 Norte 0 1015.4 -- 83
2020-09-21 16:00:00 19.4 2 Norte 14 Noroeste 0.8 1015.5 -- 89
2020-09-21 15:00:00 19.6 9 Noroeste 18 Noroeste 0 1015.8 -- 85
2020-09-21 14:00:00 19.6 5 Noroeste 11 Noroeste 0.4 1016.2 -- 91
2020-09-21 13:00:00 19.8 8 Noroeste 16 Noroeste 0 1016.2 -- 83
2020-09-21 12:00:00 20.3 5 Noroeste 9 Noroeste 0 1016 -- 80
2020-09-21 11:00:00 18.9 4 Oeste 8 Sudoeste 0 1016 -- 88
2020-09-21 10:00:00 17.4 3 Sudeste 5 Sur 0 1015.5 -- 97
2020-09-21 09:00:00 15.9 2 Sudeste 4 Sudeste 0 1015.5 -- 99
2020-09-21 08:00:00 15 3 Sudeste 5 Este 0 1015 -- 99
2020-09-21 07:00:00 14.4 3 Sudeste 6 Sudeste 0 1014.8 -- 99
2020-09-21 06:00:00 15.1 3 Sudeste 6 Sudeste 0 1014.6 -- 97
2020-09-21 05:00:00 15.9 5 Sudeste 8 Sudeste 0 1014.5 -- 98
2020-09-21 04:00:00 16.3 4 Sudeste 7 Norte 0 1014.6 -- 97
2020-09-21 03:00:00 16.7 0 Calma 4 Sudeste 0 1015 -- 97
2020-09-21 02:00:00 16.6 3 Sudeste 5 Sur 0 1015.4 -- 97
2020-09-21 01:00:00 16.3 0 Calma 5 Sur 0 1015.4 -- 97
2020-09-21 00:00:00 16 3 Sur 6 Este 0 1015.6 -- 97
2020-09-20 23:00:00 16.5 3 Sudeste 5 Sudeste 0 1015.6 -- 95
2020-09-20 22:00:00 17.3 3 Sudeste 7 Sudeste 0 1015.3 -- 93
2020-09-20 21:00:00 18.2 3 Este 6 Noroeste 0 1014.8 -- 91
2020-09-20 20:00:00 19.7 4 Noroeste 9 Norte 0 1014.3 -- 81
2020-09-20 19:00:00 20.4 4 Nordeste 17 Norte 0 1013.8 -- 79
2020-09-20 18:00:00 21 12 Norte 18 Norte 0 1013.6 -- 77
2020-09-20 17:00:00 21.1 10 Norte 18 Norte 0 1013.5 -- 78
2020-09-20 16:00:00 21.4 8 Norte 21 Noroeste 0 1013.3 -- 82
2020-09-20 15:00:00 21.3 14 Noroeste 21 Noroeste 0 1013.5 -- 80
2020-09-20 14:00:00 22 13 Noroeste 19 Noroeste 0 1013.5 -- 77
2020-09-20 13:00:00 22.1 8 Norte 13 Norte 0 1013.6 -- 73
2020-09-20 12:00:00 21.2 5 Noroeste 10 Norte 0 1013.6 -- 76
2020-09-20 11:00:00 19.2 3 Sudeste 5 Sudeste 0 1013.4 -- 84
2020-09-20 10:00:00 15.8 2 Sudeste 4 Sudeste 0 1013 -- 100
2020-09-20 09:00:00 13.8 3 Este 5 Sudeste 0 1012.8 -- 100
2020-09-20 08:00:00 13.3 4 Sudeste 5 Sudeste 0 1012.5 -- 100
2020-09-20 07:00:00 13.2 3 Sudeste 6 Este 0 1012.3 -- 100
2020-09-20 06:00:00 13.5 3 Sur 6 Sur 0 1012 -- 99
2020-09-20 05:00:00 13.5 5 Sudeste 6 Este 0 1012.2 -- 99
2020-09-20 04:00:00 13.9 3 Sudeste 5 Sudeste 0 1012.3 -- 99
2020-09-20 03:00:00 14.5 2 Norte 4 Sudeste 0 1012.3 -- 98
2020-09-20 02:00:00 15.1 3 Sudeste 4 Sudeste 0 1012.2 -- 97
2020-09-20 01:00:00 16.3 2 Noroeste 6 Sur 0 1012.5 -- 94
2020-09-20 00:00:00 17 3 Sur 8 Sur 0 1012.4 -- 92
2020-09-19 23:00:00 18.2 5 Sur 9 Sudoeste 0 1012.6 -- 89
2020-09-19 22:00:00 18.4 5 Sudoeste 9 Sudoeste 0 1012.3 -- 90
2020-09-19 21:00:00 19.2 4 Sudoeste 10 Sur 0 1011.7 -- 87
2020-09-19 20:00:00 20.1 5 Oeste 20 Noroeste 0 1011.2 -- 79
2020-09-19 19:00:00 21.2 4 Oeste 12 Noroeste 0 1010.1 -- 76
2020-09-19 18:00:00 21.1 5 Oeste 20 Sudoeste 0 1009.1 -- 74
2020-09-19 17:00:00 19.3 8 Sudoeste 22 Sudoeste 0 1009 -- 82
2020-09-19 16:00:00 18.1 11 Sur 24 Sur 0 1009.8 -- 89
2020-09-19 15:00:00 17.2 11 Sur 25 Sur 1.8 1010.2 -- 93
2020-09-19 14:00:00 17.9 6 Sudoeste 13 Oeste 3.4 1010.5 -- 92
2020-09-19 13:00:00 19.1 6 Oeste 14 Oeste 1.2 1010 -- 85
2020-09-19 12:00:00 19.6 4 Oeste 19 Sudoeste 0.4 1009.2 -- 87
2020-09-19 11:00:00 19.5 8 Sudoeste 21 Sur 0.2 1007.7 -- 84
2020-09-19 10:00:00 19.1 9 Sudoeste 22 Sudoeste 0 1007.2 -- 86
2020-09-19 09:00:00 17.3 4 Sudoeste 8 Sudoeste 0 1006.8 -- 93
2020-09-19 08:00:00 16.4 3 Sur 5 Sudeste 0 1006.5 -- 98
2020-09-19 07:00:00 16.7 2 Sudeste 6 Sudeste 0 1006.3 -- 97
2020-09-19 06:00:00 16.7 3 Sur 8 Sudeste 0 1006.1 -- 98
2020-09-19 05:00:00 16.7 0 Calma 6 Sudeste 0 1005.7 -- 97
2020-09-19 04:00:00 16.9 2 Nordeste 6 Sudeste 0 1005.8 -- 97
2020-09-19 03:00:00 16.8 2 Sudeste 7 Sudeste 0 1006.1 -- 98
2020-09-19 02:00:00 16.9 3 Oeste 10 Oeste 0 1006.6 -- 97
2020-09-19 01:00:00 16.4 5 Sudeste 10 Sudeste 0 1006.7 -- 97
2020-09-19 00:00:00 16.7 2 Nordeste 8 Este 0 1007.2 -- 95
2020-09-18 23:00:00 17.3 4 Sur 6 Sudeste 0 1007.3 -- 94
2020-09-18 22:00:00 18.7 3 Nordeste 7 Sudeste 0 1007.3 -- 85
2020-09-18 21:00:00 19.6 0 Calma 10 Norte 0 1006.7 -- 90
2020-09-18 20:00:00 20.4 5 Nordeste 19 Norte 0 1006.8 -- 85
2020-09-18 19:00:00 22.1 12 Norte 19 Norte 0 1006.3 -- 78
2020-09-18 18:00:00 23.1 9 Nordeste 17 Norte 0 1006.4 -- 68
2020-09-18 17:00:00 23.3 8 Norte 22 Nordeste 0 1006.4 -- 65
2020-09-18 16:00:00 23.4 7 Nordeste 20 Nordeste 0 1006.3 -- 72
2020-09-18 15:00:00 23.2 12 Norte 19 Norte 0 1006.3 -- 73
2020-09-18 14:00:00 22.8 8 Noroeste 16 Noroeste 0 1006.4 -- 72
2020-09-18 13:00:00 22 8 Norte 12 Norte 0 1006.5 -- 78
2020-09-18 12:00:00 20.4 3 Oeste 7 Oeste 0 1006.1 -- 84
2020-09-18 11:00:00 19.1 2 Este 6 Oeste 0.6 1005.9 -- 96
2020-09-18 10:00:00 17.7 4 Norte 11 Este 3 1006.1 -- 98
2020-09-18 09:00:00 17.5 6 Este 12 Este 1.4 1005.8 -- 96
2020-09-18 08:00:00 17.2 7 Sudeste 10 Norte 0 1005 -- 98
2020-09-18 07:00:00 17.3 8 Norte 10 Norte 0 1004.1 -- 96
2020-09-18 06:00:00 17.5 3 Sudoeste 13 Sudoeste 0 1004.1 -- 95
2020-09-18 05:00:00 17.7 5 Sudoeste 11 Sudoeste 0 1004.8 -- 98
2020-09-18 04:00:00 18.1 4 Oeste 21 Norte 7.6 1005.4 -- 97
2020-09-18 03:00:00 18.3 7 Sur 16 Sudoeste 3.8 1006.2 -- 96
2020-09-18 02:00:00 18.9 8 Oeste 24 Oeste 2.2 1005.9 -- 90
2020-09-18 01:00:00 20.6 12 Oeste 25 Noroeste 0 1005.9 -- 82
2020-09-18 00:00:00 22.1 8 Oeste 14 Oeste 0 1005.6 -- 81
2020-09-17 23:00:00 20.7 4 Sudeste 10 Oeste 0 1004.9 -- 92
2020-09-17 22:00:00 21.1 3 Sudeste 5 Sudeste 0 1004.6 -- 92
2020-09-17 21:00:00 22.4 3 Sur 8 Norte 0 1004.6 -- 87
2020-09-17 20:00:00 24.5 4 Norte 10 Norte 0 1004.9 -- 78
2020-09-17 19:00:00 25.3 4 Este 10 Este 0 1005.2 -- 79
2020-09-17 18:00:00 25.4 5 Este 14 Norte 0 1006 -- 74
2020-09-17 17:00:00 24.3 3 Norte 13 Norte 0 1006.3 -- 76
2020-09-17 16:00:00 24.5 7 Norte 11 Noroeste 0 1006.8 -- 77
2020-09-17 15:00:00 23.3 4 Nordeste 17 Norte 0 1007.4 -- 79
2020-09-17 14:00:00 24.4 6 Noroeste 12 Noroeste 0 1007.8 -- 76
2020-09-17 13:00:00 24 3 Norte 8 Oeste 0 1008.1 -- 81
2020-09-17 12:00:00 22.1 4 Noroeste 9 Norte 0 1008.6 -- 87
2020-09-17 11:00:00 20.7 3 Sudeste 5 Sur 0 1009.1 -- 95
2020-09-17 10:00:00 19.8 2 Sur 8 Sur 0 1009.5 -- 97
2020-09-17 09:00:00 19.6 3 Este 6 Este 0 1009.8 -- 97
2020-09-17 08:00:00 19.7 2 Este 8 Sudeste 0.2 1009.7 -- 96
2020-09-17 07:00:00 20.7 3 Oeste 18 Nordeste 0 1009.8 -- 92
2020-09-17 06:00:00 19.9 3 Nordeste 5 Nordeste 0 1010.8 -- 97
2020-09-17 05:00:00 19.2 3 Norte 7 Sur 0 1010.8 -- 96
2020-09-17 04:00:00 19.2 4 Este 6 Este 0 1011.7 -- 95
2020-09-17 03:00:00 19.7 2 Sudoeste 10 Sudoeste 0 1012.7 -- 94
2020-09-17 02:00:00 20.5 5 Norte 7 Norte 0 1013.2 -- 91
2020-09-17 01:00:00 21.5 4 Este 17 Este 0 1013.6 -- 87
2020-09-17 00:00:00 21.6 4 Este 13 Este 0 1014 -- 87
2020-09-16 23:00:00 21.5 5 Este 12 Sudeste 0 1014 -- 88
2020-09-16 22:00:00 21.4 7 Este 15 Este 0 1013.8 -- 87
2020-09-16 21:00:00 21.4 8 Este 18 Este 0 1013.6 -- 85
2020-09-16 20:00:00 21.9 8 Este 23 Este 0 1013.5 -- 82
2020-09-16 19:00:00 22.6 8 Este 21 Este 0 1013.5 -- 80
2020-09-16 18:00:00 22.8 10 Este 25 Este 0 1013.3 -- 79
2020-09-16 17:00:00 23.8 9 Nordeste 20 Norte 0 1013.4 -- 77
2020-09-16 16:00:00 25.1 10 Nordeste 23 Este 0 1013.8 -- 72
2020-09-16 15:00:00 23.9 9 Nordeste -- -- -- 1014.5 -- 75
2020-09-16 14:00:00 -- -- -- -- -- -- -- -- --
2020-09-16 13:00:00 24.5 14 Nordeste 29 Nordeste 0 1015.4 -- 72
2020-09-16 12:00:00 23.3 7 Este 17 Este 0 1015.6 -- 74
2020-09-16 11:00:00 21.6 7 Este -- -- -- 1015.9 -- 80
2020-09-16 10:00:00 -- -- -- -- -- -- -- -- --
2020-09-16 09:00:00 -- -- -- -- -- -- -- -- --
2020-09-16 08:00:00 17.9 3 Sudeste 5 Sur 0 1015.4 -- 99
2020-09-16 07:00:00 17.2 2 Sudeste 5 Sudeste 0 1015.5 -- 99
2020-09-16 06:00:00 16.5 2 Este 5 Este 0 1015.7 -- 99
2020-09-16 05:00:00 16.2 3 Este 8 Sudeste 0 1015.9 -- 99
2020-09-16 04:00:00 15.5 2 Este 5 Sur 0 1016.3 -- 98
2020-09-16 03:00:00 15.8 4 Sudeste 7 Este 0 1016.4 -- 98
2020-09-16 02:00:00 16.3 2 Sudeste 6 Este 0 1016.4 -- 97
2020-09-16 01:00:00 17 4 Sudeste 6 Sudeste 0 1016.5 -- 96
2020-09-16 00:00:00 17.9 4 Sudeste 6 Sudeste 0 1016.6 -- 95
2020-09-15 23:00:00 19.7 2 Sudeste -- -- -- 1016.7 -- 88
2020-09-15 22:00:00 -- -- -- -- -- -- -- -- --
2020-09-15 21:00:00 20.6 5 Este 14 Este 0 1015.8 -- 87
2020-09-15 20:00:00 21.5 4 Nordeste 16 Este 0 1015.7 -- 85
2020-09-15 19:00:00 22.4 8 Nordeste 18 Norte 0 1015.7 -- 79
2020-09-15 18:00:00 22.5 12 Norte 20 Nordeste 0 1016.1 -- 80
2020-09-15 17:00:00 23.1 15 Norte 22 Norte 0 1016.2 -- 77
2020-09-15 16:00:00 -- -- -- -- -- -- -- -- --
2020-09-15 15:00:00 24.4 8 Norte 18 Nordeste 0 1016.4 -- 71
2020-09-15 14:00:00 24.1 10 Norte 19 Norte 0 1016.4 -- 73
2020-09-15 13:00:00 23.8 10 Norte 19 Norte 0 1016.4 -- 76
2020-09-15 12:00:00 22.9 3 Noroeste 10 Noroeste 0 1016.6 -- 77
2020-09-15 11:00:00 21.4 4 Norte 10 Norte 0 1016.8 -- 84
2020-09-15 10:00:00 17.8 0 Calma 5 Este 0 1016.4 -- 98
2020-09-15 09:00:00 15.2 0 Calma 8 Sudeste 0 1016.1 -- 100
2020-09-15 08:00:00 14.8 0 Calma 5 Sudeste 0 1015.8 -- 99
2020-09-15 07:00:00 15.2 3 Sudeste 8 Sudeste 0 1015.6 -- 100
2020-09-15 06:00:00 15.8 0 Calma 6 Sudeste 0 1015.4 -- 99
2020-09-15 05:00:00 16.5 2 Noroeste 8 Sudeste 0 1015.4 -- 99
2020-09-15 04:00:00 16.9 4 Sur 7 Sudoeste 0 1015.7 -- 99
2020-09-15 03:00:00 16.9 5 Sudeste 8 Este 0 1016.5 -- 99
2020-09-15 02:00:00 17.3 4 Sudeste 5 Sudeste 0 1016.3 -- 98
2020-09-15 01:00:00 17.6 5 Sur 9 Sur 0 1016.6 -- 98
2020-09-15 00:00:00 18 2 Oeste 9 Noroeste 0 1017.1 -- 97
2020-09-14 23:00:00 18.5 2 Este 7 Sudeste 0 1016.6 -- 94
2020-09-14 22:00:00 19.1 5 Sur 30 Oeste 0 1015.9 -- 92
2020-09-14 21:00:00 19.7 13 Nordeste 27 Este 0.2 1013.1 -- 92
2020-09-14 20:00:00 20.5 9 Nordeste 21 Nordeste 0.2 1014.4 -- 86
2020-09-14 19:00:00 20.9 5 Norte -- -- -- 1014.9 -- 81
2020-09-14 18:00:00 22.2 7 Nordeste -- -- -- 1014.3 -- 73
2020-09-14 17:00:00 24.1 14 Norte 23 Norte 0 1014.7 -- 67
2020-09-14 16:00:00 22.2 6 Este -- -- -- 1014.6 -- 72
2020-09-14 15:00:00 -- -- -- -- -- -- -- -- --
2020-09-14 14:00:00 22.6 7 Noroeste 13 Noroeste 0 1015.2 -- 68
2020-09-14 13:00:00 25.8 7 Noroeste 19 Noroeste 0 1015.4 -- 51
2020-09-14 12:00:00 26 6 Oeste 12 Sudoeste 0 1014.9 -- 50
2020-09-14 11:00:00 22.8 2 Oeste 6 Sudeste 0 1014.4 -- 73
2020-09-14 10:00:00 21.7 2 Sudeste 7 Sudeste 0 1014.1 -- 78
2020-09-14 09:00:00 17.8 3 Sudeste 7 Sudeste 0 1013.8 -- 90
2020-09-14 08:00:00 16.4 2 Sur 11 Sudeste 0 1013.3 -- 93
2020-09-14 07:00:00 16.2 9 Sudeste 12 Este 0 1012.7 -- 96
2020-09-14 06:00:00 15.8 4 Sudeste 9 Este 0 1012.5 -- 96
2020-09-14 05:00:00 16 3 Sudeste 12 Sudeste 0 1012.3 -- 96
2020-09-14 04:00:00 16.4 5 Sudeste 7 Sudeste 0 1012.7 -- 95
2020-09-14 03:00:00 16.7 5 Sudeste 9 Sudeste 0 1012.9 -- 95
2020-09-14 02:00:00 17.1 5 Sudeste 7 Sudeste 0 1012.9 -- 94
2020-09-14 01:00:00 17.7 4 Sudeste 7 Sudeste 0 1012.7 -- 93
2020-09-14 00:00:00 18.5 3 Sudeste 6 Este 0 1013 -- 92
2020-09-13 23:00:00 19.3 3 Sudeste 8 Sudeste 0 1013.3 -- 90
2020-09-13 22:00:00 20.1 5 Sudeste 7 Este 0 1013.3 -- 87
2020-09-13 21:00:00 22.3 2 Sudoeste 8 Oeste 0 1012.8 -- 75
2020-09-13 20:00:00 23.8 5 Oeste 9 Oeste 0 1012.9 -- 67
2020-09-13 19:00:00 26 5 Oeste 12 Oeste 0 1012.8 -- 60
2020-09-13 18:00:00 29 7 Oeste 12 Noroeste 0 1012.6 -- 48
2020-09-13 17:00:00 29.5 6 Noroeste 11 Noroeste 0 1012.9 -- 48
2020-09-13 16:00:00 28.6 6 Noroeste 14 Noroeste 0 1013.3 -- 53
2020-09-13 15:00:00 28.3 6 Noroeste 12 Norte 0 1013.9 -- 56
2020-09-13 14:00:00 26.8 6 Noroeste 11 Oeste 0 1014.4 -- 62
2020-09-13 13:00:00 25.3 7 Noroeste 10 Noroeste 0 1014.9 -- 70
2020-09-13 12:00:00 23.5 5 Norte 10 Noroeste 0 1015.5 -- 76
2020-09-13 11:00:00 21.7 3 Noroeste 5 Norte 0 1015.5 -- 83
2020-09-13 10:00:00 17.9 0 Calma 3 Oeste 0 1015.6 -- 99
2020-09-13 09:00:00 14.7 0 Calma 6 Sudeste 0 1015.6 -- 99
2020-09-13 08:00:00 14.6 5 Este 7 Sudeste 0 1015.5 -- 98
2020-09-13 07:00:00 15.1 4 Sudeste 5 Sudeste 0 1015.6 -- 97
2020-09-13 06:00:00 16.1 4 Sudeste 6 Sudeste 0 1015.7 -- 96
2020-09-13 05:00:00 17.1 5 Sudeste 6 Sudeste 0 1016 -- 95
2020-09-13 04:00:00 18.7 4 Sudeste 7 Este 0 1016.3 -- 92
2020-09-13 03:00:00 20.1 5 Este 17 Nordeste 0 1016.6 -- 88
2020-09-13 02:00:00 20.3 8 Este 21 Este 0 1017.1 -- 88
2020-09-13 01:00:00 20 9 Este 20 Sudeste 0 1017.5 -- 89
2020-09-13 00:00:00 19.5 8 Este 17 Este 0 1017.4 -- 90
2020-09-12 23:00:00 20 10 Este 21 Este 0 1017.6 -- 87
2020-09-12 22:00:00 20.2 8 Este 17 Este 0 1017.1 -- 87
2020-09-12 21:00:00 21 11 Este -- -- -- 1016.5 -- 85
2020-09-12 20:00:00 21.9 9 Este 23 Este 0 1016.4 -- 82
2020-09-12 19:00:00 22.7 10 Este 23 Este 0 1016.3 -- 78
2020-09-12 18:00:00 23.1 14 Este 27 Este 0 1016.2 -- 74
2020-09-12 17:00:00 23.2 15 Este 30 Este 0 1016.5 -- 72
2020-09-12 16:00:00 24.1 12 Nordeste 29 Nordeste 0 1016.7 -- 68
2020-09-12 15:00:00 24.9 12 Nordeste 28 Este 0 1016.6 -- 67
2020-09-12 14:00:00 24.4 10 Este 21 Nordeste 0 1016.8 -- 65
2020-09-12 13:00:00 22.5 10 Nordeste 24 Nordeste 0 1017.1 -- 75
2020-09-12 12:00:00 21.9 12 Este 29 Este 0 1017 -- 75
2020-09-12 11:00:00 21.2 6 Este 13 Este 0 1016.5 -- 82
2020-09-12 10:00:00 21 6 Este 13 Este 0 1016 -- 85
2020-09-12 09:00:00 19.6 5 Este 10 Nordeste 0 1015.7 -- 90
2020-09-12 08:00:00 19 5 Este 10 Este 0 1015.1 -- 92
2020-09-12 07:00:00 19.4 4 Este 10 Sudeste 0 1014.6 -- 88
2020-09-12 06:00:00 20.1 5 Sudeste 15 Sudeste 0 1014.5 -- 85
2020-09-12 05:00:00 20.6 6 Sudeste 17 Sudeste 0 1014.7 -- 84
2020-09-12 04:00:00 20.7 6 Este 16 Sudeste 0 1014.6 -- 86
2020-09-12 03:00:00 20.6 5 Este 15 Este 0 1014.7 -- 86
2020-09-12 02:00:00 20.8 6 Este 15 Este 0 1014.4 -- 84
2020-09-12 01:00:00 20.6 7 Este 17 Este 0 1014.4 -- 84
2020-09-12 00:00:00 20.3 10 Este 19 Este 0 1014 -- 85
2020-09-11 23:00:00 20.8 8 Este 17 Este 0 1014 -- 85
2020-09-11 22:00:00 21 9 Este 17 Este 0 1013.4 -- 85
2020-09-11 21:00:00 21.3 9 Este 19 Sudeste 0 1012.8 -- 82
2020-09-11 20:00:00 22.4 8 Este 25 Este 0 1012.8 -- 80
2020-09-11 19:00:00 23.3 13 Este 28 Nordeste 0 1012.7 -- 76
2020-09-11 18:00:00 24 12 Nordeste 30 Este 0 1012.7 -- 75
2020-09-11 17:00:00 24.1 15 Nordeste 29 Este 0 1013 -- 74
2020-09-11 16:00:00 25.1 15 Nordeste 31 Nordeste 0 1013.2 -- 72
2020-09-11 15:00:00 24.8 13 Este 26 Nordeste 0 1013.3 -- 66
2020-09-11 14:00:00 24 10 Este 28 Nordeste 0 1013.4 -- 70
2020-09-11 13:00:00 24.3 11 Nordeste 23 Nordeste 0 1013.6 -- 72
2020-09-11 12:00:00 22.7 11 Este 20 Este 0 1013.8 -- 71
2020-09-11 11:00:00 21.1 7 Sudeste 19 Sudeste 0 1013.7 -- 80
2020-09-11 10:00:00 18.4 3 Sudoeste 6 Oeste 0 1013.7 -- 91
2020-09-11 09:00:00 17.3 2 Noroeste 8 Nordeste 0 1013.6 -- 97
2020-09-11 08:00:00 16 2 Sudoeste 4 Sudoeste 0 1013.4 -- 98
2020-09-11 07:00:00 15.3 2 Norte 5 Sudeste 0 1013.4 -- 98
2020-09-11 06:00:00 14.9 3 Sudeste 5 Sudeste 0 1013.7 -- 97
2020-09-11 05:00:00 15.7 3 Norte 4 Norte 0 1014.2 -- 96
2020-09-11 04:00:00 16 0 Calma 5 Sudeste 0 1014.8 -- 97
2020-09-11 03:00:00 15.9 2 Nordeste 5 Sudeste 0 1015.3 -- 97
2020-09-11 02:00:00 15.7 3 Sur 4 Sur 0 1015.6 -- 96
2020-09-11 01:00:00 16.5 0 Calma 4 Este 0 1015.8 -- 95
2020-09-11 00:00:00 17.1 3 Sudeste 8 Este 0 1016.2 -- 93
2020-09-10 23:00:00 18.4 4 Este 11 Este 0 1016.3 -- 90
2020-09-10 22:00:00 19.1 6 Este 12 Este 0 1016 -- 89
2020-09-10 21:00:00 19.8 6 Nordeste 15 Nordeste 0 1015.6 -- 87
2020-09-10 20:00:00 21.8 5 Nordeste 21 Norte 0 1015.8 -- 78
2020-09-10 19:00:00 23 14 Nordeste 23 Norte 0 1016.1 -- 75
2020-09-10 18:00:00 23.1 8 Nordeste 24 Norte 0 1016.5 -- 75
2020-09-10 17:00:00 23.2 11 Nordeste 23 Norte 0 1017.1 -- 73
2020-09-10 16:00:00 23.1 13 Norte 23 Norte 0 1017.6 -- 75
2020-09-10 15:00:00 23.5 12 Nordeste 26 Nordeste 0 1018 -- 74
2020-09-10 14:00:00 24.2 10 Norte 22 Norte 0 1018.3 -- 64
2020-09-10 13:00:00 23.4 10 Nordeste 24 Nordeste 0 1018.8 -- 72
2020-09-10 12:00:00 21.3 8 Nordeste 19 Norte 0 1019.1 -- 80
2020-09-10 11:00:00 19.3 5 Oeste 10 Noroeste 0 1019.2 -- 84
2020-09-10 10:00:00 15.7 3 Nordeste 6 Sudeste 0 1019 -- 97
2020-09-10 09:00:00 12.4 5 Sudeste 6 Sudeste 0 1018.9 -- 100
2020-09-10 08:00:00 11.6 5 Sudeste 7 Sudeste 0 1018.6 -- 99
2020-09-10 07:00:00 11.9 3 Sudeste 5 Sudeste 0 1018.3 -- 98
2020-09-10 06:00:00 12.5 5 Este 8 Sudeste 0 1018.5 -- 97
2020-09-10 05:00:00 13.4 0 Calma 5 Sur 0 1019.1 -- 97
2020-09-10 04:00:00 14.1 3 Sudeste 7 Sudeste 0 1019.4 -- 97
2020-09-10 03:00:00 14.3 3 Sudeste 5 Sudeste 0 1019.7 -- 97
2020-09-10 02:00:00 15 0 Calma 6 Sudeste 0 1020 -- 97
2020-09-10 01:00:00 15.9 0 Calma 6 Sudeste 0 1020.3 -- 95
2020-09-10 00:00:00 16.9 3 Sudeste 5 Sudeste 0 1020.5 -- 94
2020-09-09 23:00:00 18.2 2 Este 10 Este 0 1020.5 -- 92
2020-09-09 22:00:00 19.2 0 Calma 9 Nordeste 0 1020.3 -- 90
2020-09-09 21:00:00 20.2 5 Nordeste 15 Nordeste 0 1019.2 -- 86
2020-09-09 20:00:00 23 6 Nordeste 15 Nordeste 0 1018.8 -- 73
2020-09-09 19:00:00 23.8 7 Nordeste 23 Este 0 1018.7 -- 71
2020-09-09 18:00:00 23.6 9 Nordeste 22 Este 0 1018.8 -- 70
2020-09-09 17:00:00 23.4 12 Nordeste 28 Norte 0 1019.1 -- 74
2020-09-09 16:00:00 23.4 18 Norte 34 Norte 0 1019.4 -- 73
2020-09-09 15:00:00 23.2 15 Norte 23 Nordeste 0 1019.6 -- 73
2020-09-09 14:00:00 22.8 14 Norte 23 Nordeste 0 1020 -- 71
2020-09-09 13:00:00 22.9 13 Norte 22 Nordeste 0 1020.1 -- 69
2020-09-09 12:00:00 22.2 8 Norte 16 Nordeste 0 1020 -- 73
2020-09-09 11:00:00 19.7 3 Norte 8 Oeste 0 1020.1 -- 74
2020-09-09 10:00:00 16.5 3 Oeste 5 Oeste 0 1019.7 -- 88
2020-09-09 09:00:00 12.9 0 Calma 4 Sudeste 0 1019.5 -- 98
2020-09-09 08:00:00 12.3 4 Este 6 Este 0 1019.3 -- 97
2020-09-09 07:00:00 12.4 3 Sur 8 Sudeste 0 1019.1 -- 97
2020-09-09 06:00:00 12.1 4 Sudeste 6 Sudeste 0 1018.9 -- 96
2020-09-09 05:00:00 12.8 3 Sudeste 5 Sudoeste 0 1018.8 -- 94
2020-09-09 04:00:00 13.4 2 Sudeste 6 Sudeste 0 1018.8 -- 93
2020-09-09 03:00:00 13.6 3 Oeste 5 Oeste 0 1018.9 -- 92
2020-09-09 02:00:00 14.5 2 Sudeste 5 Sur 0 1019.4 -- 89
2020-09-09 01:00:00 16 4 Sur 6 Sudeste 0 1019.6 -- 81
2020-09-09 00:00:00 17.5 2 Sudeste 17 Este 0 1019.8 -- 76
2020-09-08 23:00:00 18.6 7 Este 16 Sudeste 0 1019.8 -- 70
2020-09-08 22:00:00 19.2 9 Este 22 Este 0 1019.7 -- 68
2020-09-08 21:00:00 19.7 11 Este 31 Este 0 1019.1 -- 67
2020-09-08 20:00:00 21.1 17 Este 42 Este 0 1018.8 -- 61
2020-09-08 19:00:00 22.1 17 Este 37 Este 0 1018.7 -- 59
2020-09-08 18:00:00 22.9 19 Este 39 Este 0 1018.7 -- 52
2020-09-08 17:00:00 23.2 17 Este 39 Este 0 1019 -- 55
2020-09-08 16:00:00 23.1 15 Este 39 Este 0 1019.6 -- 56
2020-09-08 15:00:00 23.1 17 Este 36 Este 0 1020.3 -- 53
2020-09-08 14:00:00 23 15 Este 33 Este 0 1020.6 -- 55
2020-09-08 13:00:00 21.8 15 Este 34 Este 0 1021.1 -- 62
2020-09-08 12:00:00 21.2 19 Este 36 Nordeste 0 1021.5 -- 67
2020-09-08 11:00:00 20.6 12 Este 25 Nordeste 0 1021.8 -- 68
2020-09-08 10:00:00 19 6 Este 14 Sudeste 0 1021.9 -- 71
2020-09-08 09:00:00 13.2 3 Nordeste 7 Este 0 1022 -- 92
2020-09-08 08:00:00 11.9 0 Calma 4 Sudoeste 0 1021.6 -- 94
2020-09-08 07:00:00 12.8 0 Calma 8 Nordeste 0 1021.3 -- 87
2020-09-08 06:00:00 15.2 4 Este 14 Este 0 1021.2 -- 76
2020-09-08 05:00:00 15.8 6 Este 14 Este 0 1021.4 -- 72
2020-09-08 04:00:00 15.6 6 Este 16 Este 0 1021.6 -- 75
2020-09-08 03:00:00 14.5 6 Este 14 Nordeste 0 1021.8 -- 83
2020-09-08 02:00:00 14.6 2 Este 8 Este 0 1022.3 -- 84
2020-09-08 01:00:00 16.1 4 Este 14 Este 0 1022.6 -- 77
2020-09-08 00:00:00 17.1 7 Este 16 Este 0 1022.9 -- 75
2020-09-07 23:00:00 17.3 7 Este 17 Este 0 1022.8 -- 76
2020-09-07 22:00:00 18 9 Este 19 Nordeste 0 1022.6 -- 75
2020-09-07 21:00:00 18.7 8 Este 28 Este 0 1022 -- 73
2020-09-07 20:00:00 20.2 15 Este 31 Este 0 1021.7 -- 64
2020-09-07 19:00:00 21 15 Este 32 Nordeste 0 1021.7 -- 63
2020-09-07 18:00:00 21.5 15 Este 31 Este 0 1021.5 -- 61
2020-09-07 17:00:00 22 12 Nordeste 26 Nordeste 0 1021.5 -- 59
2020-09-07 16:00:00 21.4 13 Este 28 Nordeste 0 1021.8 -- 62
2020-09-07 15:00:00 21.8 13 Nordeste 29 Nordeste 0 1022.4 -- 63
2020-09-07 14:00:00 22.3 8 Este 24 Nordeste 0 1022.3 -- 58
2020-09-07 13:00:00 21.8 11 Nordeste 24 Nordeste 0 1022.3 -- 58
2020-09-07 12:00:00 20.9 10 Este 21 Este 0 1022.2 -- 60
2020-09-07 11:00:00 20.2 8 Este 17 Este 0 1022.2 -- 63
2020-09-07 10:00:00 14.2 0 Calma 4 Sudeste 0 1021.9 -- 100
2020-09-07 09:00:00 11.7 4 Sudeste 5 Este 0 1021.4 -- 99
2020-09-07 08:00:00 11.5 2 Sur 4 Sudoeste 0 1020.9 -- 98
2020-09-07 07:00:00 11.9 0 Calma 4 Sur 0 1020.5 -- 98
2020-09-07 06:00:00 12.6 3 Sur 4 Sudeste 0 1020.3 -- 97
2020-09-07 05:00:00 13.4 3 Sudeste 6 Este 0 1020.3 -- 96
2020-09-07 04:00:00 14.2 4 Sudeste 5 Sudeste 0 1020.6 -- 93
2020-09-07 03:00:00 15 3 Sudeste 5 Este 0 1021 -- 92
2020-09-07 02:00:00 15.5 3 Sudeste 5 Sudeste 0 1021.1 -- 89
2020-09-07 01:00:00 15.9 4 Este 7 Este 0 1021.2 -- 87
2020-09-07 00:00:00 16.3 3 Sudeste 8 Sudeste 0 1021 -- 85
2020-09-06 23:00:00 17.1 6 Este 13 Este 0 1021 -- 79
2020-09-06 22:00:00 17.8 8 Este 16 Este 0 1020.5 -- 75
2020-09-06 21:00:00 18.2 9 Este 19 Este 0 1020.2 -- 72
2020-09-06 20:00:00 19.4 9 Este 25 Este 0 1020.2 -- 69
2020-09-06 19:00:00 20.4 13 Este 25 Este 0 1020.3 -- 65
2020-09-06 18:00:00 20.3 12 Nordeste 26 Nordeste 0 1020.2 -- 66
2020-09-06 17:00:00 20.3 9 Este 26 Sudeste 0 1020.2 -- 68
2020-09-06 16:00:00 20.1 9 Este 21 Este 0 1020.5 -- 66
2020-09-06 15:00:00 20.3 10 Nordeste 26 Nordeste 0 1020.5 -- 66
2020-09-06 14:00:00 19.9 9 Nordeste 20 Nordeste 0 1020.6 -- 66
2020-09-06 13:00:00 19.6 11 Este 20 Este 0 1020.8 -- 69
2020-09-06 12:00:00 18.7 9 Este 18 Sudeste 0 1021 -- 73
2020-09-06 11:00:00 18 7 Este 17 Sudeste 0 1021.1 -- 81
2020-09-06 10:00:00 17.2 5 Este 15 Este 0 1020.7 -- 85
2020-09-06 09:00:00 16.5 6 Este 19 Este 0 1020.7 -- 86
2020-09-06 08:00:00 16.1 5 Este 10 Este 0 1020.4 -- 87
2020-09-06 07:00:00 15.9 4 Este 8 Este 0 1020.2 -- 93
2020-09-06 06:00:00 15.9 3 Sudeste 12 Sudeste 0 1020.4 -- 93
2020-09-06 05:00:00 15.8 5 Este 12 Este 0 1020.7 -- 94
2020-09-06 04:00:00 15.8 7 Este 18 Este 0.2 1021.1 -- 95
2020-09-06 03:00:00 16.3 9 Este 21 Este 0.2 1021.3 -- 95
2020-09-06 02:00:00 16.9 8 Nordeste 21 Nordeste 0.6 1021.7 -- 95
2020-09-06 01:00:00 17.2 5 Nordeste 14 Este 0.2 1021.7 -- 93
2020-09-06 00:00:00 17.1 5 Este 12 Este 0 1021.8 -- 95
2020-09-05 23:00:00 17.1 8 Este 21 Este 0.2 1021.8 -- 95
2020-09-05 22:00:00 17.3 7 Este 19 Este 0 1021.5 -- 95
2020-09-05 21:00:00 17.6 8 Este 26 Este 0 1021 -- 93
2020-09-05 20:00:00 17.7 9 Este 27 Nordeste 0.4 1020.7 -- 94
2020-09-05 19:00:00 18.1 9 Este 19 Este 0.6 1020.7 -- 94
2020-09-05 18:00:00 18.3 10 Este 24 Este 0.6 1020.8 -- 93
2020-09-05 17:00:00 18.5 10 Este 24 Este 1 1021.2 -- 94
2020-09-05 16:00:00 19.1 9 Nordeste 25 Este 0.2 1021.8 -- 90
2020-09-05 15:00:00 20.2 11 Nordeste 23 Nordeste 0 1022 -- 81
2020-09-05 14:00:00 20.3 6 Nordeste 21 Nordeste 0 1022 -- 81
2020-09-05 13:00:00 20.8 8 Nordeste 19 Nordeste 0 1022.1 -- 76
2020-09-05 12:00:00 20 6 Nordeste 21 Este 0 1022.2 -- 79
2020-09-05 11:00:00 19.7 5 Nordeste 17 Nordeste 0 1021.9 -- 78
2020-09-05 10:00:00 19.5 5 Nordeste 17 Nordeste 0 1021.5 -- 84
2020-09-05 09:00:00 19.4 4 Este 13 Nordeste 0 1021.3 -- 83
2020-09-05 08:00:00 19.5 6 Nordeste 17 Nordeste 0 1021 -- 81
2020-09-05 07:00:00 19.7 8 Nordeste 19 Nordeste 0 1020.6 -- 84
2020-09-05 06:00:00 19.9 5 Nordeste 16 Nordeste 0 1020.4 -- 85
2020-09-05 05:00:00 20 7 Norte 13 Norte 0 1020.3 -- 86
2020-09-05 04:00:00 20.2 6 Norte 15 Norte 0 1020.2 -- 88
2020-09-05 03:00:00 20.5 9 Norte 14 Norte 0 1020.1 -- 90
2020-09-05 02:00:00 20.8 8 Noroeste 13 Noroeste 0 1020.1 -- 88
2020-09-05 01:00:00 21.1 5 Oeste 15 Noroeste 0 1020.1 -- 84
2020-09-05 00:00:00 21 6 Noroeste 19 Oeste 0 1019.9 -- 87
2020-09-04 23:00:00 21.1 6 Oeste 13 Oeste 0 1019.6 -- 86
2020-09-04 22:00:00 21.1 7 Oeste 17 Noroeste 0 1018.9 -- 86
2020-09-04 21:00:00 21.1 7 Noroeste 14 Norte 0 1018.2 -- 90
2020-09-04 20:00:00 22.4 8 Noroeste 13 Noroeste 0 1017.4 -- 83
2020-09-04 19:00:00 23.4 6 Norte 17 Norte 0 1016.9 -- 79
2020-09-04 18:00:00 24.2 11 Norte 21 Norte 0 1016.6 -- 78
2020-09-04 17:00:00 24.8 10 Nordeste 23 Norte 0 1016.2 -- 73
2020-09-04 16:00:00 26 7 Nordeste 20 Norte 0 1016.3 -- 70
2020-09-04 15:00:00 25.3 14 Norte 22 Nordeste 0 1016.7 -- 71
2020-09-04 14:00:00 25.1 13 Norte 20 Norte 0 1016.8 -- 72
2020-09-04 13:00:00 24.2 12 Norte 16 Norte 0 1017.1 -- 73
2020-09-04 12:00:00 24.2 5 Noroeste 9 Norte 0 1017.3 -- 73
2020-09-04 11:00:00 21.8 3 Oeste 6 Oeste 0 1017.5 -- 78
2020-09-04 10:00:00 18.6 0 Calma 4 Sudeste 0 1017.6 -- 92
2020-09-04 09:00:00 15.3 4 Noroeste 6 Noroeste 0 1017.3 -- 100
2020-09-04 08:00:00 13.8 4 Sudeste 7 Este 0 1017.1 -- 99
2020-09-04 07:00:00 14 5 Sudeste 8 Sudeste 0 1017 -- 99
2020-09-04 06:00:00 14.2 4 Sudeste 8 Sudeste 0 1017.2 -- 98
2020-09-04 05:00:00 14.6 4 Sudeste 6 Sudeste 0 1017.5 -- 98
2020-09-04 04:00:00 15 3 Sudeste 7 Sudeste 0 1017.8 -- 98
2020-09-04 03:00:00 15.4 4 Sudeste 6 Sudeste 0 1018.1 -- 97
2020-09-04 02:00:00 16 2 Sudeste 6 Sudeste 0 1018.3 -- 97
2020-09-04 01:00:00 16.5 5 Sudeste 7 Sudeste 0 1018.7 -- 96
2020-09-04 00:00:00 17.2 4 Sudeste 6 Sudeste 0 1018.7 -- 95
2020-09-03 23:00:00 18.1 5 Sudeste 6 Sudeste 0 1018.3 -- 92
2020-09-03 22:00:00 19.8 3 Sudeste 8 Este 0 1017.8 -- 85
2020-09-03 21:00:00 22.1 2 Nordeste 9 Norte 0 1017.2 -- 74
2020-09-03 20:00:00 23.9 8 Norte 13 Norte 0 1016.7 -- 68
2020-09-03 19:00:00 24.8 10 Norte 17 Norte 0 1016.6 -- 65
2020-09-03 18:00:00 25.7 6 Nordeste 19 Norte 0 1016.8 -- 59
2020-09-03 17:00:00 25.5 9 Nordeste 21 Nordeste 0 1017.1 -- 57
2020-09-03 16:00:00 25.4 8 Nordeste 25 Nordeste 0 1017.4 -- 55
2020-09-03 15:00:00 24.5 11 Nordeste 23 Norte 0 1017.9 -- 57
2020-09-03 14:00:00 24.3 10 Nordeste 20 Nordeste 0 1017.8 -- 65
2020-09-03 13:00:00 23.4 12 Norte 23 Norte 0 1017.7 -- 66
2020-09-03 12:00:00 22.1 11 Norte 17 Norte 0 1017.5 -- 68
2020-09-03 11:00:00 19.9 3 Noroeste 6 Noroeste 0 1017.3 -- 77
2020-09-03 10:00:00 16.9 2 Este 4 Sudeste 0 1017.1 -- 97
2020-09-03 09:00:00 13.3 2 Sudeste 6 Sudeste 0 1016.9 -- 99
2020-09-03 08:00:00 12 4 Sudeste 6 Este 0 1016.6 -- 99
2020-09-03 07:00:00 12.2 4 Sudeste 5 Este 0 1016.5 -- 99
2020-09-03 06:00:00 12.7 4 Sudeste 7 Este 0 1016.6 -- 98
2020-09-03 05:00:00 13 3 Sudeste 8 Este 0 1016.7 -- 98
2020-09-03 04:00:00 13.6 4 Este 6 Sudeste 0 1016.8 -- 97
2020-09-03 03:00:00 14.2 4 Sudeste 8 Sudeste 0 1016.9 -- 96
2020-09-03 02:00:00 15 5 Este 8 Sudeste 0 1017.2 -- 95
2020-09-03 01:00:00 16 3 Sur 8 Este 0 1017 -- 90
2020-09-03 00:00:00 17.1 4 Sur 8 Sudeste 0 1017.1 -- 86
2020-09-02 23:00:00 18.2 2 Sudeste 10 Este 0 1017.4 -- 81
2020-09-02 22:00:00 19.1 4 Este 10 Este 0 1017 -- 77
2020-09-02 21:00:00 20.3 6 Este 16 Este 0 1016.5 -- 74
2020-09-02 20:00:00 21.6 9 Este 22 Este 0 1016 -- 69
2020-09-02 19:00:00 22.2 9 Nordeste 24 Nordeste 0 1016 -- 68
2020-09-02 18:00:00 22.2 14 Nordeste 29 Nordeste 0 1015.9 -- 67
2020-09-02 17:00:00 22.4 13 Nordeste 32 Nordeste 0 1015.8 -- 65
2020-09-02 16:00:00 22.3 13 Nordeste 31 Nordeste 0 1016 -- 66
2020-09-02 15:00:00 23.2 11 Nordeste 32 Nordeste 0 1016.1 -- 64
2020-09-02 14:00:00 22.7 13 Nordeste 26 Norte 0 1016.1 -- 67
2020-09-02 13:00:00 21.5 8 Nordeste 22 Norte 0 1016.2 -- 68
2020-09-02 12:00:00 20.6 10 Nordeste 19 Norte 0 1016.5 -- 73
2020-09-02 11:00:00 21.1 7 Este 15 Nordeste 0 1016.3 -- 68
2020-09-02 10:00:00 17.3 2 Oeste 5 Oeste 0 1016.2 -- 84
2020-09-02 09:00:00 13.5 3 Sudeste 4 Sudeste 0 1016.3 -- 99
2020-09-02 08:00:00 12.1 3 Sudeste 6 Sudeste 0 1015.8 -- 98
2020-09-02 07:00:00 12.6 3 Sur 6 Este 0 1015.6 -- 98
2020-09-02 06:00:00 13.2 5 Sudeste 6 Este 0 1015.3 -- 98
2020-09-02 05:00:00 14 4 Sudeste 6 Sudeste 0 1015.2 -- 97
2020-09-02 04:00:00 14.4 4 Sudeste 6 Sudeste 0 1015.3 -- 96
2020-09-02 03:00:00 14.6 3 Sudeste 4 Sudeste 0 1015.4 -- 96
2020-09-02 02:00:00 14.8 4 Sudeste 6 Sudeste 0 1015.5 -- 95
2020-09-02 01:00:00 15.5 3 Sudeste 5 Sudeste 0 1015.6 -- 94
2020-09-02 00:00:00 16.5 2 Sudeste 5 Sudeste 0 1015.6 -- 90
2020-09-01 23:00:00 17.4 2 Sudeste 8 Nordeste 0 1015.5 -- 84
2020-09-01 22:00:00 18.7 3 Nordeste 15 Nordeste 0 1015.1 -- 76
2020-09-01 21:00:00 19.3 6 Nordeste 14 Norte 0 1014.9 -- 75
2020-09-01 20:00:00 20.1 8 Nordeste 24 Norte 0 1014.4 -- 74
2020-09-01 19:00:00 21.1 10 Norte 22 Nordeste 0 1014.1 -- 70
2020-09-01 18:00:00 21.9 11 Nordeste 24 Nordeste 0 1013.6 -- 69
2020-09-01 17:00:00 22.3 10 Nordeste 25 Nordeste 0 1013.3 -- 66
2020-09-01 16:00:00 22.8 11 Nordeste 27 Nordeste 0 1013.5 -- 55
2020-09-01 15:00:00 22.7 13 Nordeste 26 Norte 0 1013.8 -- 61
2020-09-01 14:00:00 21.7 12 Nordeste 24 Norte 0 1013.9 -- 65
2020-09-01 13:00:00 21.2 14 Norte 24 Nordeste 0 1013.9 -- 68
2020-09-01 12:00:00 21.1 9 Norte 14 Norte 0 1014 -- 73
2020-09-01 11:00:00 19.4 2 Oeste 5 Sudoeste 0 1013.9 -- 72
2020-09-01 10:00:00 16.8 3 Sudeste 4 Sudeste 0 1013.6 -- 85
2020-09-01 09:00:00 13.3 3 Sudeste 6 Sudeste 0 1013.3 -- 98
2020-09-01 08:00:00 12.7 2 Este 6 Sudeste 0 1013.3 -- 98
2020-09-01 07:00:00 12.6 2 Sudeste 4 Sudeste 0 1012.6 -- 97
2020-09-01 06:00:00 12.5 3 Sudeste 7 Este 0 1012.5 -- 97
2020-09-01 05:00:00 12.8 5 Sudeste 6 Este 0 1013 -- 96
2020-09-01 04:00:00 13.1 4 Este 6 Sudeste 0 1013.3 -- 96
2020-09-01 03:00:00 13.4 3 Sudeste 7 Sudeste 0 1013.7 -- 93
2020-09-01 02:00:00 13.6 4 Sudeste 6 Sudeste 0 1014 -- 92
2020-09-01 01:00:00 13.6 6 Sudeste 8 Sudeste 0 1014.1 -- 90
2020-09-01 00:00:00 14.6 4 Sudeste 7 Sudeste 0 1014.2 -- 88
2020-08-31 23:00:00 16.3 5 Sudeste 6 Sudeste 0 1014.2 -- 84
2020-08-31 22:00:00 17.3 4 Sudeste 7 Este 0 1014 -- 79
2020-08-31 21:00:00 19.4 5 Este 12 Este 0 1013.6 -- 61
2020-08-31 20:00:00 20.5 6 Este 13 Este 0 1013.5 -- 58
2020-08-31 19:00:00 20.9 9 Norte 18 Nordeste 0 1014.1 -- 62
2020-08-31 18:00:00 22.7 5 Nordeste 19 Este 0 1014.2 -- 52
2020-08-31 17:00:00 21.7 11 Este 23 Este 0 1014.5 -- 50
2020-08-31 16:00:00 22.1 12 Nordeste 21 Nordeste 0 1014.9 -- 54
2020-08-31 15:00:00 22.4 10 Nordeste 27 Nordeste 0 1015.2 -- 55
2020-08-31 14:00:00 22.9 13 Nordeste 25 Nordeste 0 1015.6 -- 55
2020-08-31 13:00:00 21.7 5 Nordeste 15 Norte 0 1016 -- 51
2020-08-31 12:00:00 20.3 7 Este 17 Este 0 1016.2 -- 55
2020-08-31 11:00:00 17 2 Oeste 6 Sur 0 1016.4 -- 72
2020-08-31 10:00:00 13.6 3 Sudeste 5 Sudeste 0 1016.4 -- 88
2020-08-31 09:00:00 10 2 Sudeste 5 Sudeste 0.2 1016.3 -- 100
2020-08-31 08:00:00 8.1 3 Sudeste 6 Sudeste 0 1016.4 -- 100
2020-08-31 07:00:00 8.4 3 Este 5 Sudeste 0 1016.5 -- 100
2020-08-31 06:00:00 8.7 4 Sudeste 7 Sudeste 0 1016.4 -- 100
2020-08-31 05:00:00 9 2 Sudeste 5 Sudeste 0 1016.8 -- 99
2020-08-31 04:00:00 9.5 0 Calma 5 Este 0 1017.3 -- 99
2020-08-31 03:00:00 10 3 Sudeste 8 Sudeste 0 1018 -- 99
2020-08-31 02:00:00 10.3 3 Sudeste 6 Sudeste 0 1018.4 -- 98
2020-08-31 01:00:00 10.8 3 Sudeste 5 Sudeste 0 1018.4 -- 97
2020-08-31 00:00:00 11.5 5 Sudeste 6 Sudeste 0 1018.3 -- 97
2020-08-30 23:00:00 12.3 3 Sudeste 5 Sur 0 1018.2 -- 95
2020-08-30 22:00:00 13.8 3 Sudeste 11 Este 0 1018 -- 89
2020-08-30 21:00:00 17.1 3 Este 14 Norte 0 1017.4 -- 68
2020-08-30 20:00:00 18.6 6 Nordeste 17 Nordeste 0 1017.1 -- 61
2020-08-30 19:00:00 19.6 9 Nordeste 17 Nordeste 0 1017.1 -- 58
2020-08-30 18:00:00 18.8 7 Norte 15 Norte 0 1017.1 -- 60
2020-08-30 17:00:00 19.1 9 Nordeste 14 Norte 0 1017 -- 67
2020-08-30 16:00:00 18.2 3 Norte 11 Oeste 0 1017.2 -- 73
2020-08-30 15:00:00 16.3 4 Sur 9 Sur 1.6 1017.4 -- 90
2020-08-30 14:00:00 14.5 6 Noroeste 15 Noroeste 6.6 1017.6 -- 91
2020-08-30 13:00:00 15.7 7 Este 14 Oeste 1.2 1016.7 -- 91
2020-08-30 12:00:00 16 5 Sur 11 Sudeste 2.2 1016.2 -- 90
2020-08-30 11:00:00 15.4 7 Oeste 13 Noroeste 0.4 1016.1 -- 84
2020-08-30 10:00:00 14.4 3 Norte 6 Norte 0 1015.2 -- 91
2020-08-30 09:00:00 12.1 4 Noroeste 10 Sudoeste 0 1014.8 -- 98
2020-08-30 08:00:00 11.7 0 Calma 8 Sudoeste 0 1014.6 -- 97
2020-08-30 07:00:00 11.9 4 Sudeste 6 Nordeste 0 1014.2 -- 97
2020-08-30 06:00:00 12.8 3 Oeste 9 Sur 0 1014.1 -- 95
2020-08-30 05:00:00 13.1 4 Sur 14 Oeste 0 1014 -- 95
2020-08-30 04:00:00 13.4 5 Sur 14 Sur 3 1013.9 -- 96
2020-08-30 03:00:00 13.6 6 Noroeste 14 Norte 2.6 1014.5 -- 96
2020-08-30 02:00:00 13.4 3 Sur 9 Sur 0 1014.3 -- 97
2020-08-30 01:00:00 13.4 3 Sudeste 12 Norte 5 1014.4 -- 95
2020-08-30 00:00:00 13.6 3 Sur 16 Sur 0 1014 -- 92
2020-08-29 23:00:00 14 6 Sudoeste 11 Sur 1.2 1014 -- 95
2020-08-29 22:00:00 14 2 Sudeste 8 Sur 0 1013.6 -- 96
2020-08-29 21:00:00 14.4 4 Sudeste 27 Noroeste 1 1013.2 -- 92
2020-08-29 20:00:00 16.4 19 Noroeste 40 Noroeste 1.2 1012.6 -- 81
2020-08-29 19:00:00 18.5 12 Norte 26 Norte 0 1012.4 -- 65
2020-08-29 18:00:00 18.4 17 Norte 29 Norte 0 1012 -- 66
2020-08-29 17:00:00 18.2 14 Norte 32 Norte 0 1011.5 -- 72
2020-08-29 16:00:00 16.5 20 Norte 39 Norte 0.6 1011.2 -- 83
2020-08-29 15:00:00 17.9 18 Norte 36 Norte 0.2 1010.7 -- 74
2020-08-29 14:00:00 18.1 6 Norte 38 Norte 0 1010.3 -- 79
2020-08-29 13:00:00 18.4 18 Noroeste 39 Norte 0.4 1010.2 -- 74
2020-08-29 12:00:00 18 17 Norte 33 Norte 0.4 1009.3 -- 79
2020-08-29 11:00:00 16.8 15 Noroeste 50 Noroeste 3.6 1009.1 -- 82
2020-08-29 10:00:00 15.7 7 Sudoeste 16 Sudeste 2.2 1008.4 -- 94
2020-08-29 09:00:00 14.5 7 Sudoeste 22 Noroeste 1.4 1008.3 -- 94
2020-08-29 08:00:00 14.1 10 Sudoeste 23 Noroeste 5.2 1008 -- 95
2020-08-29 07:00:00 14.2 9 Sur 19 Sur 3.2 1007.8 -- 94
2020-08-29 06:00:00 14.2 8 Sudoeste 24 Sudoeste 0 1007.8 -- 92
2020-08-29 05:00:00 14.1 5 Sudoeste 20 Sudoeste 1.4 1008.4 -- 93
2020-08-29 04:00:00 14.3 9 Sudoeste 18 Sudoeste 0.2 1008.4 -- 90
2020-08-29 03:00:00 14.3 8 Sudoeste 15 Sudoeste 1.4 1009 -- 91
2020-08-29 02:00:00 14.6 5 Sudoeste 10 Sudoeste 0.2 1009.4 -- 89
2020-08-29 01:00:00 14.7 5 Sur 15 Sudoeste 0.8 1009.4 -- 90
2020-08-29 00:00:00 14.8 3 Oeste 18 Sur 1.4 1009.8 -- 90
2020-08-28 23:00:00 16.4 9 Sudoeste 26 Oeste 0 1009.8 -- 74
2020-08-28 22:00:00 17.4 6 Sur 26 Oeste 0 1009.7 -- 67
2020-08-28 21:00:00 18.8 11 Oeste 37 Oeste 0 1009.5 -- 60
2020-08-28 20:00:00 20 17 Oeste 36 Oeste 0 1009.5 -- 59
2020-08-28 19:00:00 20.6 20 Oeste 39 Noroeste 0 1009.7 -- 51
2020-08-28 18:00:00 21.9 20 Noroeste 47 Noroeste 0 1009.8 -- 49
2020-08-28 17:00:00 22.2 18 Noroeste 38 Noroeste 0 1009.9 -- 52
2020-08-28 16:00:00 22 19 Oeste 45 Noroeste 0 1010 -- 52
2020-08-28 15:00:00 21.1 22 Oeste 41 Oeste 0 1010.6 -- 56
2020-08-28 14:00:00 20.5 14 Oeste 36 Oeste 0 1011 -- 53
2020-08-28 13:00:00 20.1 18 Oeste 34 Oeste 0 1011.3 -- 58
2020-08-28 12:00:00 21 14 Oeste 29 Oeste 0 1011.3 -- 53
2020-08-28 11:00:00 19.9 9 Oeste 28 Sudoeste 0 1011.6 -- 58
2020-08-28 10:00:00 19.5 6 Sudoeste 20 Sudoeste 0 1011.6 -- 66
2020-08-28 09:00:00 17.8 10 Oeste 19 Oeste 0 1011.7 -- 70
2020-08-28 08:00:00 17.3 5 Sudoeste 12 Sudoeste 0 1011.9 -- 82
2020-08-28 07:00:00 18.2 5 Sudoeste 15 Noroeste 0 1011.6 -- 80
2020-08-28 06:00:00 18.4 5 Oeste 18 Noroeste 0 1012 -- 79
2020-08-28 05:00:00 18.6 10 Oeste 20 Oeste 0 1012.3 -- 77
2020-08-28 04:00:00 18.2 7 Oeste 18 Noroeste 0 1012.7 -- 87
2020-08-28 03:00:00 18.3 3 Sudoeste 16 Oeste 2.2 1013.1 -- 95
2020-08-28 02:00:00 18.8 5 Oeste 15 Oeste 0.4 1013.6 -- 93
2020-08-28 01:00:00 18.9 7 Oeste 30 Noroeste 0.4 1014.1 -- 94
2020-08-28 00:00:00 19.7 15 Noroeste 27 Norte 0.2 1013.9 -- 96
2020-08-27 23:00:00 22 10 Noroeste 22 Noroeste 0 1013.8 -- 85
2020-08-27 22:00:00 22.7 9 Noroeste 18 Noroeste 0 1013.9 -- 76
2020-08-27 21:00:00 22.6 3 Sur 11 Norte 0 1013.8 -- 80
2020-08-27 20:00:00 22.8 6 Norte 14 Norte 0 1014 -- 80
2020-08-27 19:00:00 23.3 9 Norte 20 Norte 0 1014.4 -- 78
2020-08-27 18:00:00 24.4 11 Norte 24 Norte 0 1014.6 -- 74
2020-08-27 17:00:00 24 13 Norte 27 Norte 0 1014.8 -- 75
2020-08-27 16:00:00 25.7 12 Norte 24 Norte 0 1014.9 -- 66
2020-08-27 15:00:00 25.6 12 Noroeste 24 Norte 0 1015.2 -- 65
2020-08-27 14:00:00 25.1 12 Noroeste 21 Noroeste 0 1015.8 -- 70
2020-08-27 13:00:00 23.2 14 Norte 26 Norte 0 1016.3 -- 81
2020-08-27 12:00:00 23.6 10 Norte 22 Norte 0 1016.3 -- 80
2020-08-27 11:00:00 23.5 9 Norte 17 Norte 0 1015.8 -- 80
2020-08-27 10:00:00 23 8 Noroeste 14 Noroeste 0 1015.5 -- 81
2020-08-27 09:00:00 20.8 5 Sur 10 Sur 0 1015.5 -- 92
2020-08-27 08:00:00 19.6 4 Sudeste 7 Sudeste 0 1016 -- 97
2020-08-27 07:00:00 18.6 3 Sudeste 8 Sudeste 0 1015.9 -- 98
2020-08-27 06:00:00 18.8 4 Sudeste 5 Sudeste 0 1015.8 -- 97
2020-08-27 05:00:00 19.6 3 Sudoeste 6 Sudeste 0 1015.7 -- 96
2020-08-27 04:00:00 20.2 3 Sur 9 Sudeste 0 1016.2 -- 95
2020-08-27 03:00:00 20 3 Oeste 5 Noroeste 0 1016.5 -- 95
2020-08-27 02:00:00 20 3 Noroeste 5 Sur 0 1016.7 -- 96
2020-08-27 01:00:00 19.7 3 Sur 6 Sudeste 0 1017 -- 94
2020-08-27 00:00:00 20.7 4 Sudeste 13 Este 0 1017.1 -- 91
2020-08-26 23:00:00 21.2 5 Este 12 Este 0 1017.4 -- 89
2020-08-26 22:00:00 22.1 3 Nordeste 16 Este 0 1017 -- 86
2020-08-26 21:00:00 23 8 Este 17 Este 0 1016.7 -- 81
2020-08-26 20:00:00 24.9 6 Este 19 Nordeste 0 1016.5 -- 74
2020-08-26 19:00:00 26 10 Nordeste 22 Norte 0 1016.7 -- 70
2020-08-26 18:00:00 26 10 Este 24 Nordeste 0 1016.8 -- 70
2020-08-26 17:00:00 26 10 Nordeste 26 Nordeste 0 1017.1 -- 70
2020-08-26 16:00:00 25.9 13 Nordeste 29 Nordeste 0 1017.3 -- 71
2020-08-26 15:00:00 25.5 11 Nordeste 25 Nordeste 0 1017.6 -- 72
2020-08-26 14:00:00 25.5 14 Nordeste 25 Norte 0 1017.6 -- 73
2020-08-26 13:00:00 25 10 Nordeste 20 Nordeste 0 1017.8 -- 75
2020-08-26 12:00:00 24.9 9 Nordeste 17 Nordeste 0 1017.7 -- 78
2020-08-26 11:00:00 23.1 5 Norte 11 Norte 0 1017.2 -- 86
2020-08-26 10:00:00 21.8 5 Norte 8 Noroeste 0 1017 -- 90
2020-08-26 09:00:00 21.1 2 Noroeste 5 Noroeste 0 1016.8 -- 95
2020-08-26 08:00:00 20.7 3 Norte 6 Norte 0 1016.4 -- 95
2020-08-26 07:00:00 20.6 2 Este 5 Nordeste 0 1016.1 -- 96
2020-08-26 06:00:00 20.7 3 Norte 7 Norte 0 1016 -- 96
2020-08-26 05:00:00 20.7 2 Este 5 Sudeste 0 1015.8 -- 96
2020-08-26 04:00:00 20.8 4 Norte 5 Norte 0 1015.9 -- 97
2020-08-26 03:00:00 20.8 0 Calma 4 Sur 0.2 1015.9 -- 97
2020-08-26 02:00:00 20.8 2 Norte 7 Norte 0 1016 -- 96
2020-08-26 01:00:00 20.9 3 Norte 7 Norte 0 1016.4 -- 96
2020-08-26 00:00:00 21.2 2 Nordeste 8 Norte 0 1016.5 -- 93
2020-08-25 23:00:00 21.2 5 Norte 10 Norte 0 1016.6 -- 93
2020-08-25 22:00:00 22 6 Norte 12 Noroeste 0 1016 -- 88
2020-08-25 21:00:00 22.3 3 Nordeste 15 Norte 0 1015.2 -- 83
2020-08-25 20:00:00 22.7 9 Norte 20 Norte 0 1015 -- 81
2020-08-25 19:00:00 24.5 13 Norte 27 Norte 0 1014.7 -- 70
2020-08-25 18:00:00 25.6 15 Noroeste 32 Norte 0 1014.1 -- 62
2020-08-25 17:00:00 26.2 17 Norte 26 Noroeste 0 1013.3 -- 58
2020-08-25 16:00:00 27.2 14 Norte 23 Norte 0 1012.9 -- 56
2020-08-25 15:00:00 26.2 9 Norte 20 Norte 0 1012.8 -- 57
2020-08-25 14:00:00 24.8 11 Noroeste 22 Norte 0 1012.9 -- 57
2020-08-25 13:00:00 24.6 13 Norte 22 Norte 0 1012.8 -- 57
2020-08-25 12:00:00 24.2 9 Norte 17 Norte 0 1012.6 -- 62
2020-08-25 11:00:00 22.9 10 Noroeste 20 Norte 0 1012.3 -- 69
2020-08-25 10:00:00 20.7 2 Este 5 Sur 0 1011.5 -- 81
2020-08-25 09:00:00 17.4 0 Calma 7 Noroeste 0 1011.2 -- 94
2020-08-25 08:00:00 15.2 2 Este 9 Sudeste 0 1010.9 -- 99
2020-08-25 07:00:00 15.1 3 Sudeste -- -- -- 1010.8 -- 98
2020-08-25 06:00:00 15.1 7 Sudeste 9 Sudeste 0 1010.7 -- 97
2020-08-25 05:00:00 15.1 5 Sudeste 6 Sudeste 0 1010.2 -- 97
2020-08-25 04:00:00 15.5 3 Sudeste 7 Sudeste 0 1010 -- 96
2020-08-25 03:00:00 15.5 6 Sudeste 8 Este 0 1010.3 -- 95
2020-08-25 02:00:00 16 0 Calma 5 Sudeste 0 1010.3 -- 94
2020-08-25 01:00:00 16.4 4 Sudeste 6 Sudeste 0 1010.6 -- 93
2020-08-25 00:00:00 17.2 3 Sur 6 Sudeste 0 1011.4 -- 89
2020-08-24 23:00:00 18.7 3 Sudeste 14 Este 0 1011.9 -- 84
2020-08-24 22:00:00 20 6 Este 20 Este 0 1011.7 -- 78
2020-08-24 21:00:00 21.4 11 Este 24 Este 0 1011.6 -- 70
2020-08-24 20:00:00 23 12 Este 23 Este 0 1012 -- 63
2020-08-24 19:00:00 23.7 12 Este 31 Nordeste 0 1012.6 -- 61
2020-08-24 18:00:00 24.5 14 Nordeste 27 Nordeste 0 1012.9 -- 57
2020-08-24 17:00:00 25.4 9 Este 27 Este 0 1013.3 -- 53
2020-08-24 16:00:00 25.6 11 Este 27 Nordeste 0 1013.9 -- 52
2020-08-24 15:00:00 25.5 11 Este 28 Nordeste 0 1014.9 -- 52
2020-08-24 14:00:00 24.7 11 Nordeste 29 Nordeste 0 1015.4 -- 56
2020-08-24 13:00:00 24.3 11 Nordeste 25 Este 0 1016.2 -- 59
2020-08-24 12:00:00 24.7 12 Nordeste 24 Norte 0 1017.2 -- 60
2020-08-24 11:00:00 22.5 10 Este 19 Nordeste 0 1017.1 -- 66
2020-08-24 10:00:00 21.4 6 Este 12 Este 0 1017.5 -- 73
2020-08-24 09:00:00 18.8 3 Sudeste 4 Sur 0 1017.7 -- 87
2020-08-24 08:00:00 17.8 4 Sur 5 Sur 0 1017.7 -- 92
2020-08-24 07:00:00 18.2 3 Sudeste 4 Sudeste 0 1018 -- 90
2020-08-24 06:00:00 18.2 2 Este 13 Este 0 1018.2 -- 88
2020-08-24 05:00:00 19 8 Este 13 Este 0 1018.2 -- 84
2020-08-24 04:00:00 19.1 4 Nordeste 6 Norte 0 1018.6 -- 83
2020-08-24 03:00:00 19 0 Calma 4 Este 0 1018.8 -- 82
2020-08-24 02:00:00 18.7 2 Sudeste 6 Sudeste 0 1019.5 -- 84
2020-08-24 01:00:00 18.3 3 Sudeste 5 Este 0 1019.8 -- 87
2020-08-24 00:00:00 18 2 Sudeste 5 Sudeste 0 1020.1 -- 87